createdAt,value
2017-01-22T00:00:07.328Z,0
2017-01-22T00:00:47.905Z,0
2017-01-22T00:01:28.499Z,0
2017-01-22T00:02:09.101Z,0
2017-01-22T00:02:49.695Z,0
2017-01-22T00:03:30.284Z,0
2017-01-22T00:04:10.876Z,0
2017-01-22T00:04:51.489Z,0
2017-01-22T00:05:32.087Z,0
2017-01-22T00:06:12.676Z,0
2017-01-22T00:06:53.270Z,0
2017-01-22T00:07:33.849Z,0
2017-01-22T00:08:14.445Z,0
2017-01-22T00:08:55.043Z,0
2017-01-22T00:09:35.651Z,0
2017-01-22T00:10:16.240Z,0
2017-01-22T00:10:56.833Z,0
2017-01-22T00:11:37.426Z,0
2017-01-22T00:12:18.004Z,0
2017-01-22T00:12:58.607Z,0
2017-01-22T00:13:39.194Z,0
2017-01-22T00:14:19.781Z,0
2017-01-22T00:15:00.373Z,0
2017-01-22T00:15:40.958Z,0
2017-01-22T00:16:21.565Z,0
2017-01-22T00:17:02.159Z,0
2017-01-22T00:17:42.774Z,0
2017-01-22T00:18:23.376Z,0
2017-01-22T00:19:03.977Z,0
2017-01-22T00:19:44.572Z,0
2017-01-22T00:20:25.200Z,0
2017-01-22T00:21:05.822Z,0
2017-01-22T00:21:46.399Z,0
2017-01-22T00:22:26.997Z,0
2017-01-22T00:23:07.617Z,0
2017-01-22T00:23:48.202Z,0
2017-01-22T00:24:28.791Z,0
2017-01-22T00:25:09.388Z,0
2017-01-22T00:25:49.992Z,0
2017-01-22T00:26:30.581Z,0
2017-01-22T00:27:11.185Z,0
2017-01-22T00:27:51.780Z,0
2017-01-22T00:28:32.364Z,0
2017-01-22T00:29:12.974Z,0
2017-01-22T00:29:53.556Z,0
2017-01-22T00:30:34.160Z,0
2017-01-22T00:31:14.752Z,0
2017-01-22T00:31:55.340Z,0
2017-01-22T00:32:35.941Z,0
2017-01-22T00:33:16.520Z,0
2017-01-22T00:33:57.116Z,0
2017-01-22T00:34:37.704Z,0
2017-01-22T00:35:18.288Z,0
2017-01-22T00:35:58.870Z,0
2017-01-22T00:36:39.466Z,0
2017-01-22T00:37:20.062Z,0
2017-01-22T00:38:00.665Z,0
2017-01-22T00:38:41.265Z,0
2017-01-22T00:39:21.867Z,0
2017-01-22T00:40:02.454Z,0
2017-01-22T00:40:43.090Z,0
2017-01-22T00:41:23.722Z,0
2017-01-22T00:42:04.307Z,0
2017-01-22T00:42:44.886Z,0
2017-01-22T00:43:25.489Z,0
2017-01-22T00:44:06.077Z,0
2017-01-22T00:44:46.669Z,0
2017-01-22T00:45:27.266Z,0
2017-01-22T00:46:07.856Z,0
2017-01-22T00:46:48.435Z,0
2017-01-22T00:47:29.038Z,0
2017-01-22T00:48:09.640Z,0
2017-01-22T00:48:50.261Z,0
2017-01-22T00:49:30.844Z,0
2017-01-22T00:50:11.445Z,0
2017-01-22T00:50:52.031Z,0
2017-01-22T00:51:32.619Z,0
2017-01-22T00:52:13.194Z,0
2017-01-22T00:52:53.785Z,0
2017-01-22T00:53:34.372Z,0
2017-01-22T00:54:14.965Z,0
2017-01-22T00:54:55.566Z,0
2017-01-22T00:55:36.157Z,0
2017-01-22T00:56:16.751Z,0
2017-01-22T00:56:57.343Z,0
2017-01-22T00:57:37.930Z,0
2017-01-22T00:58:18.530Z,0
2017-01-22T00:58:59.129Z,0
2017-01-22T00:59:39.730Z,0
2017-01-22T01:00:20.345Z,0
2017-01-22T01:01:00.940Z,0
2017-01-22T01:01:41.536Z,0
2017-01-22T01:02:22.135Z,0
2017-01-22T01:03:02.718Z,0
2017-01-22T01:03:43.347Z,0
2017-01-22T01:04:23.978Z,0
2017-01-22T01:05:04.547Z,0
2017-01-22T01:05:45.130Z,0
2017-01-22T01:06:25.730Z,0
2017-01-22T01:07:06.333Z,0
2017-01-22T01:07:46.924Z,0
2017-01-22T01:08:27.505Z,0
2017-01-22T01:09:08.111Z,0
2017-01-22T01:09:48.715Z,0
2017-01-22T01:10:29.303Z,0
2017-01-22T01:11:09.927Z,0
2017-01-22T01:11:50.521Z,0
2017-01-22T01:12:31.125Z,0
2017-01-22T01:13:11.716Z,0
2017-01-22T01:13:52.301Z,0
2017-01-22T01:14:32.901Z,0
2017-01-22T01:15:13.497Z,0
2017-01-22T01:15:54.072Z,0
2017-01-22T01:16:34.665Z,0
2017-01-22T01:17:15.240Z,0
2017-01-22T01:17:55.831Z,0
2017-01-22T01:18:36.416Z,0
2017-01-22T01:19:17.002Z,0
2017-01-22T01:19:57.580Z,0
2017-01-22T01:20:38.167Z,0
2017-01-22T01:21:18.755Z,0
2017-01-22T01:21:59.349Z,0
2017-01-22T01:22:39.974Z,0
2017-01-22T01:23:20.567Z,0
2017-01-22T01:24:01.160Z,0
2017-01-22T01:24:41.754Z,0
2017-01-22T01:25:22.352Z,0
2017-01-22T01:26:02.951Z,0
2017-01-22T01:26:43.555Z,0
2017-01-22T01:27:24.173Z,0
2017-01-22T01:28:04.776Z,0
2017-01-22T01:28:45.365Z,0
2017-01-22T01:29:25.967Z,0
2017-01-22T01:30:06.553Z,0
2017-01-22T01:30:47.148Z,0
2017-01-22T01:31:27.762Z,0
2017-01-22T01:32:08.362Z,0
2017-01-22T01:32:48.963Z,0
2017-01-22T01:33:29.558Z,0
2017-01-22T01:34:10.146Z,0
2017-01-22T01:34:50.727Z,0
2017-01-22T01:35:31.339Z,0
2017-01-22T01:36:11.952Z,0
2017-01-22T01:36:52.534Z,0
2017-01-22T01:37:33.133Z,0
2017-01-22T01:38:13.734Z,0
2017-01-22T01:38:54.337Z,0
2017-01-22T01:39:34.943Z,0
2017-01-22T01:40:15.571Z,0
2017-01-22T01:40:56.150Z,0
2017-01-22T01:41:36.751Z,0
2017-01-22T01:42:17.348Z,0
2017-01-22T01:42:57.954Z,0
2017-01-22T01:43:38.561Z,0
2017-01-22T01:44:19.147Z,0
2017-01-22T01:44:59.723Z,0
2017-01-22T01:45:40.312Z,0
2017-01-22T01:46:20.894Z,0
2017-01-22T01:47:01.495Z,0
2017-01-22T01:47:42.082Z,0
2017-01-22T01:48:22.685Z,0
2017-01-22T01:49:03.307Z,0
2017-01-22T01:49:43.887Z,0
2017-01-22T01:50:24.470Z,0
2017-01-22T01:51:05.057Z,0
2017-01-22T01:51:45.646Z,0
2017-01-22T01:52:26.225Z,0
2017-01-22T01:53:06.832Z,0
2017-01-22T01:53:47.466Z,0
2017-01-22T01:54:28.070Z,0
2017-01-22T01:55:08.698Z,0
2017-01-22T01:55:49.283Z,0
2017-01-22T01:56:29.890Z,0
2017-01-22T01:57:10.489Z,0
2017-01-22T01:57:51.077Z,0
2017-01-22T01:58:31.703Z,0
2017-01-22T01:59:12.314Z,0
2017-01-22T01:59:52.896Z,0
2017-01-22T02:00:33.485Z,0
2017-01-22T02:01:14.069Z,0
2017-01-22T02:01:54.662Z,0
2017-01-22T02:02:35.276Z,0
2017-01-22T02:03:15.864Z,0
2017-01-22T02:03:56.446Z,0
2017-01-22T02:04:37.047Z,0
2017-01-22T02:05:17.650Z,0
2017-01-22T02:05:58.263Z,0
2017-01-22T02:06:38.857Z,0
2017-01-22T02:07:19.457Z,0
2017-01-22T02:08:00.054Z,0
2017-01-22T02:08:40.644Z,0
2017-01-22T02:09:21.247Z,0
2017-01-22T02:10:01.831Z,0
2017-01-22T02:10:42.426Z,0
2017-01-22T02:11:23.028Z,0
2017-01-22T02:12:03.606Z,0
2017-01-22T02:12:44.193Z,0
2017-01-22T02:13:24.782Z,0
2017-01-22T02:14:05.382Z,0
2017-01-22T02:14:45.992Z,0
2017-01-22T02:15:26.588Z,0
2017-01-22T02:16:07.160Z,0
2017-01-22T02:16:47.740Z,0
2017-01-22T02:17:28.342Z,0
2017-01-22T02:18:10.876Z,0
2017-01-22T02:18:51.466Z,0
2017-01-22T02:19:32.059Z,0
2017-01-22T02:20:12.645Z,0
2017-01-22T02:20:53.251Z,0
2017-01-22T02:21:33.894Z,0
2017-01-22T02:22:14.483Z,0
2017-01-22T02:22:55.068Z,0
2017-01-22T02:23:35.655Z,0
2017-01-22T02:24:16.280Z,0
2017-01-22T02:24:56.859Z,0
2017-01-22T02:25:37.449Z,0
2017-01-22T02:26:18.047Z,0
2017-01-22T02:26:58.628Z,0
2017-01-22T02:27:39.211Z,0
2017-01-22T02:28:19.800Z,0
2017-01-22T02:29:00.386Z,0
2017-01-22T02:29:40.975Z,0
2017-01-22T02:30:21.576Z,0
2017-01-22T02:31:02.166Z,0
2017-01-22T02:31:42.756Z,0
2017-01-22T02:32:23.341Z,0
2017-01-22T02:33:03.935Z,0
2017-01-22T02:33:44.523Z,0
2017-01-22T02:34:25.103Z,0
2017-01-22T02:35:05.687Z,0
2017-01-22T02:35:46.283Z,0
2017-01-22T02:36:26.875Z,0
2017-01-22T02:37:07.476Z,0
2017-01-22T02:37:48.089Z,0
2017-01-22T02:38:28.678Z,0
2017-01-22T02:39:09.273Z,0
2017-01-22T02:39:49.863Z,0
2017-01-22T02:40:30.452Z,0
2017-01-22T02:41:11.043Z,0
2017-01-22T02:41:51.643Z,0
2017-01-22T02:42:32.247Z,0
2017-01-22T02:43:12.822Z,0
2017-01-22T02:43:53.402Z,0
2017-01-22T02:44:34.007Z,0
2017-01-22T02:45:14.604Z,0
2017-01-22T02:45:55.241Z,0
2017-01-22T02:46:35.833Z,0
2017-01-22T02:47:16.424Z,0
2017-01-22T02:47:57.012Z,0
2017-01-22T02:48:37.616Z,0
2017-01-22T02:49:18.214Z,0
2017-01-22T02:49:58.792Z,0
2017-01-22T02:50:39.384Z,0
2017-01-22T02:51:19.976Z,0
2017-01-22T02:52:00.569Z,0
2017-01-22T02:52:41.162Z,0
2017-01-22T02:53:21.776Z,0
2017-01-22T02:54:02.391Z,0
2017-01-22T02:54:42.988Z,0
2017-01-22T02:55:23.592Z,0
2017-01-22T02:56:04.196Z,0
2017-01-22T02:56:44.792Z,0
2017-01-22T02:57:25.386Z,0
2017-01-22T02:58:05.971Z,0
2017-01-22T02:58:46.564Z,0
2017-01-22T02:59:27.154Z,0
2017-01-22T03:00:07.761Z,0
2017-01-22T03:00:48.354Z,0
2017-01-22T03:01:28.967Z,0
2017-01-22T03:02:09.561Z,0
2017-01-22T03:02:50.164Z,0
2017-01-22T03:03:30.758Z,0
2017-01-22T03:04:11.356Z,0
2017-01-22T03:04:51.965Z,0
2017-01-22T03:05:32.563Z,0
2017-01-22T03:06:13.155Z,0
2017-01-22T03:06:53.733Z,0
2017-01-22T03:07:34.318Z,0
2017-01-22T03:08:14.905Z,0
2017-01-22T03:08:55.483Z,0
2017-01-22T03:09:36.072Z,0
2017-01-22T03:10:16.659Z,0
2017-01-22T03:10:57.251Z,0
2017-01-22T03:11:37.830Z,0
2017-01-22T03:12:18.432Z,0
2017-01-22T03:12:59.029Z,0
2017-01-22T03:13:39.627Z,0
2017-01-22T03:14:20.221Z,0
2017-01-22T03:15:00.819Z,0
2017-01-22T03:15:41.413Z,0
2017-01-22T03:16:22.015Z,0
2017-01-22T03:17:02.604Z,0
2017-01-22T03:17:43.208Z,0
2017-01-22T03:18:23.810Z,0
2017-01-22T03:19:04.404Z,0
2017-01-22T03:19:44.980Z,0
2017-01-22T03:20:25.562Z,0
2017-01-22T03:21:06.152Z,0
2017-01-22T03:21:46.760Z,0
2017-01-22T03:22:27.357Z,0
2017-01-22T03:23:07.947Z,0
2017-01-22T03:23:48.565Z,0
2017-01-22T03:24:29.151Z,0
2017-01-22T03:25:09.760Z,0
2017-01-22T03:25:50.352Z,0
2017-01-22T03:26:30.934Z,0
2017-01-22T03:27:11.524Z,0
2017-01-22T03:27:52.139Z,0
2017-01-22T03:28:32.728Z,0
2017-01-22T03:29:13.352Z,0
2017-01-22T03:29:53.951Z,0
2017-01-22T03:30:34.543Z,0
2017-01-22T03:31:15.126Z,0
2017-01-22T03:31:55.736Z,0
2017-01-22T03:32:36.342Z,0
2017-01-22T03:33:16.944Z,0
2017-01-22T03:33:57.549Z,0
2017-01-22T03:34:38.157Z,0
2017-01-22T03:35:18.769Z,0
2017-01-22T03:35:59.361Z,0
2017-01-22T03:36:39.969Z,0
2017-01-22T03:37:20.564Z,0
2017-01-22T03:38:01.150Z,0
2017-01-22T03:38:41.736Z,0
2017-01-22T03:39:22.323Z,0
2017-01-22T03:40:02.923Z,0
2017-01-22T03:40:43.506Z,0
2017-01-22T03:41:24.103Z,0
2017-01-22T03:42:04.685Z,0
2017-01-22T03:42:45.274Z,0
2017-01-22T03:43:25.869Z,0
2017-01-22T03:44:06.462Z,0
2017-01-22T03:44:47.052Z,0
2017-01-22T03:45:27.650Z,0
2017-01-22T03:46:08.260Z,0
2017-01-22T03:46:48.869Z,0
2017-01-22T03:47:29.477Z,0
2017-01-22T03:48:10.052Z,0
2017-01-22T03:48:50.643Z,0
2017-01-22T03:49:31.230Z,0
2017-01-22T03:50:11.833Z,0
2017-01-22T03:50:52.428Z,0
2017-01-22T03:51:33.021Z,0
2017-01-22T03:52:13.613Z,0
2017-01-22T03:52:54.212Z,0
2017-01-22T03:53:34.811Z,0
2017-01-22T03:54:15.417Z,0
2017-01-22T03:54:56.013Z,0
2017-01-22T03:55:36.608Z,0
2017-01-22T03:56:17.221Z,0
2017-01-22T03:56:57.818Z,0
2017-01-22T03:57:38.420Z,0
2017-01-22T03:58:19.029Z,0
2017-01-22T03:58:59.612Z,0
2017-01-22T03:59:40.205Z,0
2017-01-22T04:00:20.799Z,0
2017-01-22T04:01:01.380Z,0
2017-01-22T04:01:41.973Z,0
2017-01-22T04:02:22.557Z,0
2017-01-22T04:03:03.163Z,0
2017-01-22T04:03:43.742Z,0
2017-01-22T04:04:24.332Z,0
2017-01-22T04:05:04.948Z,0
2017-01-22T04:05:45.533Z,0
2017-01-22T04:06:26.130Z,0
2017-01-22T04:07:06.728Z,0
2017-01-22T04:07:47.308Z,0
2017-01-22T04:08:27.913Z,0
2017-01-22T04:09:08.504Z,0
2017-01-22T04:09:49.102Z,0
2017-01-22T04:10:29.684Z,0
2017-01-22T04:11:10.276Z,0
2017-01-22T04:11:50.854Z,0
2017-01-22T04:12:31.446Z,0
2017-01-22T04:13:12.036Z,0
2017-01-22T04:13:52.653Z,0
2017-01-22T04:14:33.252Z,0
2017-01-22T04:15:13.855Z,0
2017-01-22T04:15:54.438Z,0
2017-01-22T04:16:35.022Z,0
2017-01-22T04:17:15.622Z,0
2017-01-22T04:17:56.222Z,0
2017-01-22T04:18:36.805Z,0
2017-01-22T04:19:17.407Z,0
2017-01-22T04:19:58.003Z,0
2017-01-22T04:20:38.591Z,0
2017-01-22T04:21:19.207Z,0
2017-01-22T04:21:59.786Z,0
2017-01-22T04:22:40.378Z,0
2017-01-22T04:23:20.967Z,0
2017-01-22T04:24:01.553Z,0
2017-01-22T04:24:42.141Z,0
2017-01-22T04:25:22.729Z,0
2017-01-22T04:26:03.335Z,0
2017-01-22T04:26:43.921Z,0
2017-01-22T04:27:24.510Z,0
2017-01-22T04:28:05.089Z,0
2017-01-22T04:28:45.680Z,0
2017-01-22T04:29:26.292Z,0
2017-01-22T04:30:06.889Z,0
2017-01-22T04:30:47.484Z,0
2017-01-22T04:31:28.094Z,0
2017-01-22T04:32:08.688Z,0
2017-01-22T04:32:49.296Z,0
2017-01-22T04:33:29.908Z,0
2017-01-22T04:34:10.517Z,0
2017-01-22T04:34:51.102Z,0
2017-01-22T04:35:31.698Z,0
2017-01-22T04:36:12.299Z,0
2017-01-22T04:36:52.909Z,0
2017-01-22T04:37:33.517Z,0
2017-01-22T04:38:14.109Z,0
2017-01-22T04:38:54.699Z,0
2017-01-22T04:39:35.307Z,0
2017-01-22T04:40:15.895Z,0
2017-01-22T04:40:56.508Z,0
2017-01-22T04:41:37.120Z,0
2017-01-22T04:42:17.721Z,0
2017-01-22T04:42:58.295Z,0
2017-01-22T04:43:38.899Z,0
2017-01-22T04:44:19.481Z,0
2017-01-22T04:45:00.075Z,0
2017-01-22T04:45:40.665Z,0
2017-01-22T04:46:21.297Z,0
2017-01-22T04:47:01.865Z,0
2017-01-22T04:47:42.452Z,0
2017-01-22T04:48:23.034Z,0
2017-01-22T04:49:03.629Z,0
2017-01-22T04:49:44.241Z,0
2017-01-22T04:50:24.825Z,0
2017-01-22T04:51:05.431Z,0
2017-01-22T04:51:46.017Z,0
2017-01-22T04:52:26.600Z,0
2017-01-22T04:53:07.201Z,0
2017-01-22T04:53:47.805Z,0
2017-01-22T04:54:28.399Z,0
2017-01-22T04:55:08.987Z,0
2017-01-22T04:55:49.597Z,0
2017-01-22T04:56:30.247Z,0
2017-01-22T04:57:10.844Z,0
2017-01-22T04:57:51.448Z,0
2017-01-22T04:58:32.013Z,0
2017-01-22T04:59:12.607Z,0
2017-01-22T04:59:53.187Z,0
2017-01-22T05:00:33.765Z,0
2017-01-22T05:01:14.354Z,0
2017-01-22T05:01:54.952Z,0
2017-01-22T05:02:35.523Z,0
2017-01-22T05:03:16.117Z,0
2017-01-22T05:03:56.719Z,0
2017-01-22T05:04:37.315Z,0
2017-01-22T05:05:17.899Z,0
2017-01-22T05:05:58.480Z,0
2017-01-22T05:06:39.110Z,0
2017-01-22T05:07:19.659Z,0
2017-01-22T05:08:00.241Z,0
2017-01-22T05:08:40.844Z,0
2017-01-22T05:09:21.439Z,0
2017-01-22T05:10:02.030Z,0
2017-01-22T05:10:42.606Z,0
2017-01-22T05:11:23.190Z,0
2017-01-22T05:12:03.781Z,0
2017-01-22T05:12:44.368Z,0
2017-01-22T05:13:24.946Z,0
2017-01-22T05:14:05.539Z,0
2017-01-22T05:14:46.137Z,0
2017-01-22T05:15:26.732Z,0
2017-01-22T05:16:07.303Z,0
2017-01-22T05:16:47.897Z,0
2017-01-22T05:17:28.483Z,0
2017-01-22T05:18:09.072Z,0
2017-01-22T05:18:49.660Z,0
2017-01-22T05:19:30.246Z,0
2017-01-22T05:20:10.848Z,0
2017-01-22T05:20:51.446Z,0
2017-01-22T05:21:32.055Z,0
2017-01-22T05:22:12.640Z,0
2017-01-22T05:22:53.218Z,0
2017-01-22T05:23:33.810Z,0
2017-01-22T05:24:14.391Z,0
2017-01-22T05:24:54.974Z,0
2017-01-22T05:25:35.562Z,0
2017-01-22T05:26:16.171Z,0
2017-01-22T05:26:56.757Z,0
2017-01-22T05:27:37.353Z,0
2017-01-22T05:28:17.949Z,0
2017-01-22T05:28:58.527Z,0
2017-01-22T05:29:39.134Z,0
2017-01-22T05:30:19.725Z,0
2017-01-22T05:31:00.322Z,0
2017-01-22T05:31:40.907Z,0
2017-01-22T05:32:21.490Z,0
2017-01-22T05:33:02.078Z,0
2017-01-22T05:33:42.688Z,0
2017-01-22T05:34:23.259Z,0
2017-01-22T05:35:03.846Z,0
2017-01-22T05:35:44.445Z,0
2017-01-22T05:36:25.041Z,0
2017-01-22T05:37:05.626Z,0
2017-01-22T05:37:46.228Z,0
2017-01-22T05:38:26.842Z,0
2017-01-22T05:39:07.443Z,0
2017-01-22T05:39:48.040Z,0
2017-01-22T05:40:28.626Z,0
2017-01-22T05:41:09.207Z,0
2017-01-22T05:41:49.798Z,0
2017-01-22T05:42:30.404Z,0
2017-01-22T05:43:10.998Z,0
2017-01-22T05:43:51.590Z,0
2017-01-22T05:44:32.179Z,0
2017-01-22T05:45:12.772Z,0
2017-01-22T05:45:53.374Z,0
2017-01-22T05:46:33.997Z,0
2017-01-22T05:47:14.608Z,0
2017-01-22T05:47:55.197Z,0
2017-01-22T05:48:35.806Z,0
2017-01-22T05:49:16.400Z,0
2017-01-22T05:49:56.986Z,0
2017-01-22T05:50:37.570Z,0
2017-01-22T05:51:18.157Z,0
2017-01-22T05:51:58.765Z,0
2017-01-22T05:52:39.356Z,0
2017-01-22T05:53:19.943Z,0
2017-01-22T05:54:00.537Z,0
2017-01-22T05:54:41.121Z,0
2017-01-22T05:55:21.719Z,0
2017-01-22T05:56:02.303Z,0
2017-01-22T05:56:42.914Z,0
2017-01-22T05:57:23.517Z,0
2017-01-22T05:58:04.115Z,0
2017-01-22T05:58:44.709Z,0
2017-01-22T05:59:25.316Z,0
2017-01-22T06:00:05.897Z,0
2017-01-22T06:00:46.487Z,0
2017-01-22T06:01:27.107Z,0
2017-01-22T06:02:07.685Z,0
2017-01-22T06:02:48.287Z,0
2017-01-22T06:03:28.876Z,0
2017-01-22T06:04:09.455Z,0
2017-01-22T06:04:50.041Z,0
2017-01-22T06:05:30.638Z,0
2017-01-22T06:06:11.245Z,0
2017-01-22T06:06:51.845Z,0
2017-01-22T06:07:32.445Z,0
2017-01-22T06:08:13.051Z,0
2017-01-22T06:08:53.651Z,0
2017-01-22T06:09:34.236Z,0
2017-01-22T06:10:14.824Z,0
2017-01-22T06:10:55.401Z,0
2017-01-22T06:11:35.995Z,0
2017-01-22T06:12:16.586Z,0
2017-01-22T06:12:57.164Z,0
2017-01-22T06:13:37.753Z,0
2017-01-22T06:14:18.350Z,0
2017-01-22T06:14:58.952Z,0
2017-01-22T06:15:39.530Z,0
2017-01-22T06:16:20.116Z,0
2017-01-22T06:17:00.709Z,0
2017-01-22T06:17:41.304Z,0
2017-01-22T06:18:21.903Z,0
2017-01-22T06:19:02.508Z,0
2017-01-22T06:19:43.080Z,0
2017-01-22T06:20:23.689Z,0
2017-01-22T06:21:04.277Z,0
2017-01-22T06:21:44.870Z,0
2017-01-22T06:22:25.451Z,0
2017-01-22T06:23:06.067Z,0
2017-01-22T06:23:46.658Z,0
2017-01-22T06:24:27.238Z,0
2017-01-22T06:25:07.824Z,0
2017-01-22T06:25:48.468Z,0
2017-01-22T06:26:29.033Z,0
2017-01-22T06:27:09.625Z,0
2017-01-22T06:27:50.194Z,0
2017-01-22T06:28:30.781Z,0
2017-01-22T06:29:11.394Z,0
2017-01-22T06:29:51.971Z,0
2017-01-22T06:30:32.558Z,0
2017-01-22T06:31:13.149Z,0
2017-01-22T06:31:53.742Z,0
2017-01-22T06:32:34.352Z,0
2017-01-22T06:33:14.947Z,0
2017-01-22T06:33:55.534Z,0
2017-01-22T06:34:36.115Z,0
2017-01-22T06:35:16.704Z,0
2017-01-22T06:35:57.301Z,0
2017-01-22T06:36:37.883Z,0
2017-01-22T06:37:18.456Z,0
2017-01-22T06:37:59.045Z,0
2017-01-22T06:38:39.632Z,0
2017-01-22T06:39:20.215Z,0
2017-01-22T06:40:00.813Z,0
2017-01-22T06:40:41.399Z,0
2017-01-22T06:41:21.983Z,0
2017-01-22T06:42:02.579Z,0
2017-01-22T06:42:43.174Z,0
2017-01-22T06:43:23.785Z,0
2017-01-22T06:44:04.357Z,0
2017-01-22T06:44:44.940Z,0
2017-01-22T06:45:25.534Z,0
2017-01-22T06:46:06.131Z,0
2017-01-22T06:46:46.728Z,0
2017-01-22T06:47:27.341Z,0
2017-01-22T06:48:07.933Z,0
2017-01-22T06:48:48.536Z,0
2017-01-22T06:49:29.125Z,0
2017-01-22T06:50:09.701Z,0
2017-01-22T06:50:50.294Z,0
2017-01-22T06:51:30.879Z,0
2017-01-22T06:52:11.453Z,0
2017-01-22T06:52:52.043Z,0
2017-01-22T06:53:32.645Z,0
2017-01-22T06:54:13.242Z,0
2017-01-22T06:54:53.821Z,0
2017-01-22T06:55:34.403Z,0
2017-01-22T06:56:14.996Z,0
2017-01-22T06:56:55.570Z,0
2017-01-22T06:57:36.145Z,0
2017-01-22T06:58:16.728Z,0
2017-01-22T06:58:57.310Z,0
2017-01-22T06:59:37.897Z,0
2017-01-22T07:00:18.495Z,0
2017-01-22T07:00:59.081Z,0
2017-01-22T07:01:39.668Z,0
2017-01-22T07:02:20.932Z,0
2017-01-22T07:03:01.515Z,0
2017-01-22T07:03:42.097Z,0
2017-01-22T07:04:22.671Z,0
2017-01-22T07:05:03.256Z,0
2017-01-22T07:05:43.839Z,0
2017-01-22T07:06:24.443Z,0
2017-01-22T07:07:05.045Z,0
2017-01-22T07:07:45.647Z,0
2017-01-22T07:08:26.244Z,0
2017-01-22T07:09:06.828Z,0
2017-01-22T07:09:47.422Z,0
2017-01-22T07:10:28.002Z,0
2017-01-22T07:11:08.605Z,0
2017-01-22T07:11:49.190Z,0
2017-01-22T07:12:29.775Z,0
2017-01-22T07:13:10.357Z,0
2017-01-22T07:13:50.948Z,0
2017-01-22T07:14:31.522Z,0
2017-01-22T07:15:12.135Z,0
2017-01-22T07:15:52.714Z,0
2017-01-22T07:16:33.303Z,0
2017-01-22T07:17:13.890Z,0
2017-01-22T07:17:54.482Z,0
2017-01-22T07:18:35.077Z,0
2017-01-22T07:19:15.665Z,0
2017-01-22T07:19:56.255Z,0
2017-01-22T07:20:36.852Z,0
2017-01-22T07:21:17.436Z,0
2017-01-22T07:21:58.028Z,0
2017-01-22T07:22:38.609Z,0
2017-01-22T07:23:19.189Z,0
2017-01-22T07:23:59.773Z,0
2017-01-22T07:24:40.356Z,0
2017-01-22T07:25:20.939Z,0
2017-01-22T07:26:01.527Z,0
2017-01-22T07:26:42.114Z,0
2017-01-22T07:27:22.702Z,0
2017-01-22T07:28:03.281Z,0
2017-01-22T07:28:43.870Z,0
2017-01-22T07:29:24.466Z,0
2017-01-22T07:30:05.041Z,4
2017-01-22T07:30:45.625Z,4
2017-01-22T07:31:26.208Z,4
2017-01-22T07:32:06.816Z,4
2017-01-22T07:32:47.418Z,4
2017-01-22T07:33:28.009Z,4
2017-01-22T07:34:08.584Z,4
2017-01-22T07:34:49.163Z,0
2017-01-22T07:35:29.745Z,0
2017-01-22T07:36:10.355Z,0
2017-01-22T07:36:50.935Z,0
2017-01-22T07:37:31.542Z,0
2017-01-22T07:38:12.131Z,0
2017-01-22T07:38:52.714Z,4
2017-01-22T07:39:33.322Z,4
2017-01-22T07:40:13.906Z,4
2017-01-22T07:40:54.495Z,4
2017-01-22T07:41:35.092Z,4
2017-01-22T07:42:15.667Z,4
2017-01-22T07:42:56.278Z,4
2017-01-22T07:43:36.868Z,4
2017-01-22T07:44:17.462Z,4
2017-01-22T07:44:58.048Z,4
2017-01-22T07:45:38.658Z,4
2017-01-22T07:46:19.272Z,4
2017-01-22T07:46:59.834Z,4
2017-01-22T07:47:40.412Z,4
2017-01-22T07:48:21.003Z,4
2017-01-22T07:49:01.598Z,4
2017-01-22T07:49:42.189Z,0
2017-01-22T07:50:22.782Z,0
2017-01-22T07:51:03.367Z,0
2017-01-22T07:51:43.969Z,0
2017-01-22T07:52:24.556Z,0
2017-01-22T07:53:05.154Z,0
2017-01-22T07:53:45.742Z,4
2017-01-22T07:54:26.335Z,4
2017-01-22T07:55:06.938Z,4
2017-01-22T07:55:47.529Z,4
2017-01-22T07:56:28.119Z,4
2017-01-22T07:57:08.706Z,4
2017-01-22T07:57:49.289Z,4
2017-01-22T07:58:29.882Z,4
2017-01-22T07:59:10.495Z,4
2017-01-22T07:59:51.096Z,4
2017-01-22T08:00:31.685Z,4
2017-01-22T08:01:12.277Z,4
2017-01-22T08:01:52.861Z,4
2017-01-22T08:02:33.448Z,4
2017-01-22T08:03:14.060Z,4
2017-01-22T08:03:54.658Z,4
2017-01-22T08:04:35.241Z,4
2017-01-22T08:05:15.823Z,4
2017-01-22T08:05:56.401Z,4
2017-01-22T08:06:36.979Z,4
2017-01-22T08:07:17.573Z,4
2017-01-22T08:07:58.157Z,4
2017-01-22T08:08:39.542Z,4
2017-01-22T08:09:20.129Z,4
2017-01-22T08:10:00.711Z,4
2017-01-22T08:10:41.303Z,4
2017-01-22T08:11:21.894Z,4
2017-01-22T08:12:02.490Z,4
2017-01-22T08:12:43.073Z,4
2017-01-22T08:13:23.655Z,4
2017-01-22T08:14:04.231Z,4
2017-01-22T08:14:44.816Z,8
2017-01-22T08:15:25.403Z,8
2017-01-22T08:16:05.977Z,4
2017-01-22T08:16:46.578Z,4
2017-01-22T08:17:27.167Z,4
2017-01-22T08:18:07.759Z,4
2017-01-22T08:18:48.333Z,4
2017-01-22T08:19:28.919Z,4
2017-01-22T08:20:09.507Z,4
2017-01-22T08:20:50.104Z,4
2017-01-22T08:21:30.680Z,4
2017-01-22T08:22:11.284Z,4
2017-01-22T08:22:51.884Z,8
2017-01-22T08:23:32.489Z,8
2017-01-22T08:24:13.100Z,8
2017-01-22T08:24:53.690Z,8
2017-01-22T08:25:34.290Z,8
2017-01-22T08:26:14.885Z,4
2017-01-22T08:26:55.491Z,4
2017-01-22T08:27:36.104Z,8
2017-01-22T08:28:16.715Z,8
2017-01-22T08:28:57.305Z,4
2017-01-22T08:29:37.907Z,4
2017-01-22T08:30:18.505Z,4
2017-01-22T08:30:59.103Z,4
2017-01-22T08:31:39.703Z,8
2017-01-22T08:32:20.306Z,4
2017-01-22T08:33:00.885Z,4
2017-01-22T08:33:41.468Z,4
2017-01-22T08:34:22.057Z,4
2017-01-22T08:35:02.637Z,8
2017-01-22T08:35:43.235Z,8
2017-01-22T08:36:23.820Z,4
2017-01-22T08:37:04.421Z,4
2017-01-22T08:37:44.995Z,8
2017-01-22T08:38:25.576Z,8
2017-01-22T08:39:06.183Z,8
2017-01-22T08:39:46.780Z,8
2017-01-22T08:40:27.372Z,8
2017-01-22T08:41:07.967Z,8
2017-01-22T08:41:48.547Z,12
2017-01-22T08:42:29.149Z,12
2017-01-22T08:43:09.741Z,12
2017-01-22T08:43:50.337Z,12
2017-01-22T08:44:30.909Z,12
2017-01-22T08:45:11.497Z,16
2017-01-22T08:45:52.088Z,12
2017-01-22T08:46:32.666Z,16
2017-01-22T08:47:13.252Z,16
2017-01-22T08:47:53.853Z,16
2017-01-22T08:48:34.419Z,16
2017-01-22T08:49:15.006Z,16
2017-01-22T08:49:55.592Z,16
2017-01-22T08:50:36.169Z,16
2017-01-22T08:51:16.746Z,16
2017-01-22T08:51:57.349Z,16
2017-01-22T08:52:37.949Z,20
2017-01-22T08:53:18.535Z,20
2017-01-22T08:53:59.125Z,20
2017-01-22T08:54:39.722Z,16
2017-01-22T08:55:20.332Z,20
2017-01-22T08:56:00.917Z,20
2017-01-22T08:56:41.498Z,20
2017-01-22T08:57:22.085Z,20
2017-01-22T08:58:02.675Z,20
2017-01-22T08:58:43.268Z,20
2017-01-22T08:59:23.860Z,20
2017-01-22T09:00:04.444Z,20
2017-01-22T09:00:45.028Z,20
2017-01-22T09:01:25.636Z,20
2017-01-22T09:02:06.222Z,24
2017-01-22T09:02:46.798Z,20
2017-01-22T09:03:27.389Z,24
2017-01-22T09:04:07.979Z,24
2017-01-22T09:04:48.569Z,20
2017-01-22T09:05:29.162Z,24
2017-01-22T09:06:09.764Z,28
2017-01-22T09:06:50.357Z,24
2017-01-22T09:07:30.951Z,28
2017-01-22T09:08:11.546Z,24
2017-01-22T09:08:52.165Z,28
2017-01-22T09:09:32.743Z,28
2017-01-22T09:10:13.349Z,24
2017-01-22T09:10:53.954Z,28
2017-01-22T09:11:34.548Z,28
2017-01-22T09:12:15.155Z,28
2017-01-22T09:12:55.752Z,28
2017-01-22T09:13:36.365Z,32
2017-01-22T09:14:16.968Z,40
2017-01-22T09:14:57.565Z,36
2017-01-22T09:15:38.158Z,40
2017-01-22T09:16:18.735Z,36
2017-01-22T09:16:59.335Z,44
2017-01-22T09:17:39.925Z,40
2017-01-22T09:18:20.500Z,40
2017-01-22T09:19:01.092Z,36
2017-01-22T09:19:41.686Z,36
2017-01-22T09:20:22.264Z,32
2017-01-22T09:21:02.882Z,32
2017-01-22T09:21:43.480Z,32
2017-01-22T09:22:24.085Z,28
2017-01-22T09:23:04.662Z,32
2017-01-22T09:23:45.256Z,28
2017-01-22T09:24:25.851Z,28
2017-01-22T09:25:06.436Z,28
2017-01-22T09:25:47.016Z,32
2017-01-22T09:26:27.620Z,28
2017-01-22T09:27:08.204Z,28
2017-01-22T09:27:48.788Z,28
2017-01-22T09:28:29.384Z,28
2017-01-22T09:29:09.965Z,28
2017-01-22T09:29:50.552Z,28
2017-01-22T09:30:31.148Z,32
2017-01-22T09:31:11.737Z,32
2017-01-22T09:31:52.323Z,28
2017-01-22T09:32:32.908Z,28
2017-01-22T09:33:13.506Z,28
2017-01-22T09:33:54.108Z,28
2017-01-22T09:34:34.720Z,28
2017-01-22T09:35:15.308Z,24
2017-01-22T09:35:55.895Z,24
2017-01-22T09:36:36.482Z,24
2017-01-22T09:37:17.062Z,28
2017-01-22T09:37:57.661Z,28
2017-01-22T09:38:38.262Z,28
2017-01-22T09:39:18.843Z,28
2017-01-22T09:39:59.435Z,28
2017-01-22T09:40:40.029Z,28
2017-01-22T09:41:20.627Z,28
2017-01-22T09:42:01.199Z,24
2017-01-22T09:42:41.791Z,28
2017-01-22T09:43:22.380Z,28
2017-01-22T09:44:02.972Z,28
2017-01-22T09:44:43.555Z,24
2017-01-22T09:45:24.150Z,24
2017-01-22T09:46:04.752Z,24
2017-01-22T09:46:45.340Z,24
2017-01-22T09:47:25.924Z,24
2017-01-22T09:48:06.510Z,24
2017-01-22T09:48:47.121Z,24
2017-01-22T09:49:27.733Z,24
2017-01-22T09:50:08.294Z,24
2017-01-22T09:50:48.873Z,24
2017-01-22T09:51:29.460Z,28
2017-01-22T09:52:10.031Z,24
2017-01-22T09:52:50.624Z,24
2017-01-22T09:53:31.203Z,24
2017-01-22T09:54:11.785Z,24
2017-01-22T09:54:52.378Z,24
2017-01-22T09:55:32.978Z,24
2017-01-22T09:56:13.567Z,24
2017-01-22T09:56:54.155Z,24
2017-01-22T09:57:34.731Z,24